Time;durP1;ratioP1;P1;durP2;ratioP2;P2;SDS_P1;SDS_P2;PMS_P1;PMS_P2;Temp;Humidity;BMP_temperature;BMP_pressure;BME280_temperature;BME280_humidity;BME280_pressure;Samples;Min_cycle;Max_cycle;Signal;HPM_P1;HPM_P2
2021/05/29 04:02:23;;;;;;;12.20;10.90;;;7.30;96.30;;;;;;5016932;23;20550;-75
2021/05/29 04:04:49;;;;;;;13.53;10.03;;;7.20;96.30;;;;;;4901991;29;20413;-75
2021/05/29 04:07:14;;;;;;;15.03;10.60;;;7.30;96.30;;;;;;4911520;29;20204;-75
2021/05/29 04:09:40;;;;;;;11.10;9.93;;;7.30;96.30;;;;;;4916152;29;20259;-75
2021/05/29 04:12:06;;;;;;;11.77;10.20;;;7.30;96.30;;;;;;4915962;29;20211;-75
2021/05/29 04:14:34;;;;;;;17.00;11.30;;;7.30;96.30;;;;;;4916332;29;20215;-75
2021/05/29 04:16:59;;;;;;;13.30;10.80;;;7.40;96.30;;;;;;4915653;29;20504;-75
2021/05/29 04:19:25;;;;;;;12.27;9.90;;;7.30;96.30;;;;;;4916081;29;20484;-75
2021/05/29 04:21:50;;;;;;;14.10;11.60;;;7.40;96.30;;;;;;4915668;29;20196;-75
2021/05/29 04:24:16;;;;;;;12.57;10.87;;;7.40;96.30;;;;;;4915993;29;20187;-75
2021/05/29 04:26:41;;;;;;;11.87;10.60;;;7.50;96.30;;;;;;4915376;29;20177;-75
2021/05/29 04:29:07;;;;;;;11.83;10.60;;;7.50;96.30;;;;;;4916054;29;20223;-75
2021/05/29 04:31:32;;;;;;;11.40;9.40;;;7.60;96.30;;;;;;4915403;29;20212;-75
2021/05/29 04:33:58;;;;;;;10.33;9.23;;;7.60;96.30;;;;;;4915607;29;20570;-75
2021/05/29 04:36:23;;;;;;;10.93;9.63;;;7.70;96.30;;;;;;4929658;29;20172;-75
2021/05/29 04:38:49;;;;;;;16.53;11.10;;;7.80;96.30;;;;;;4915742;29;20176;-75
2021/05/29 04:41:14;;;;;;;11.23;9.27;;;7.80;96.30;;;;;;4915590;29;20204;-75
2021/05/29 04:43:40;;;;;;;14.40;10.50;;;7.70;96.30;;;;;;4914352;29;20190;-75
2021/05/29 04:46:05;;;;;;;12.83;9.60;;;7.70;96.30;;;;;;4915440;29;20179;-75
2021/05/29 04:48:31;;;;;;;11.97;9.20;;;7.60;96.30;;;;;;4930010;29;20652;-75
2021/05/29 04:51:12;;;;;;;10.40;9.30;;;7.60;96.30;;;;;;4915626;29;20211;-75
2021/05/29 04:53:39;;;;;;;9.83;8.83;;;7.70;96.30;;;;;;4930043;29;20204;-75
2021/05/29 04:56:05;;;;;;;9.93;8.67;;;7.70;96.30;;;;;;4915669;29;20432;-75
2021/05/29 04:58:31;;;;;;;13.53;8.33;;;7.80;96.30;;;;;;4915453;29;20495;-75
2021/05/29 05:00:56;;;;;;;9.30;8.30;;;7.90;96.30;;;;;;4915335;29;21008;-75
2021/05/29 05:03:23;;;;;;;10.20;7.90;;;8.00;96.30;;;;;;4915387;29;20615;-75
2021/05/29 05:05:48;;;;;;;8.63;7.83;;;8.10;96.30;;;;;;4915636;29;20184;-75
2021/05/29 05:08:14;;;;;;;9.67;7.73;;;8.10;96.30;;;;;;4914681;29;20781;-75
2021/05/29 05:10:40;;;;;;;10.07;7.80;;;8.20;96.30;;;;;;4915532;29;20244;-75
2021/05/29 05:13:05;;;;;;;9.13;7.20;;;8.30;96.30;;;;;;4915209;29;20562;-75
2021/05/29 05:15:31;;;;;;;6.97;6.10;;;8.30;96.30;;;;;;4915380;29;20176;-75
2021/05/29 05:17:57;;;;;;;7.27;5.77;;;8.50;96.30;;;;;;4914868;29;20256;-75
2021/05/29 05:20:22;;;;;;;8.60;6.33;;;8.60;96.30;;;;;;4915365;29;20248;-75
2021/05/29 05:22:48;;;;;;;6.40;5.80;;;8.80;96.30;;;;;;4915377;29;20263;-75
2021/05/29 05:25:14;;;;;;;6.97;6.30;;;8.80;96.30;;;;;;4915411;29;20191;-74
2021/05/29 05:27:41;;;;;;;6.90;5.90;;;8.80;96.30;;;;;;4914726;29;20736;-74
2021/05/29 05:30:08;;;;;;;9.23;6.43;;;8.90;96.30;;;;;;4915258;29;20416;-75
2021/05/29 05:32:34;;;;;;;6.80;6.17;;;9.00;96.30;;;;;;4915805;29;20460;-75
2021/05/29 05:35:00;;;;;;;7.70;6.90;;;9.30;96.30;;;;;;4918725;29;20415;-75
2021/05/29 05:37:26;;;;;;;7.70;6.30;;;9.60;96.30;;;;;;4918207;29;20173;-75
2021/05/29 05:39:52;;;;;;;7.30;5.57;;;10.20;96.30;;;;;;4918416;29;20532;-75
2021/05/29 05:42:18;;;;;;;6.60;6.00;;;10.70;96.30;;;;;;4918234;29;20197;-75
2021/05/29 05:44:44;;;;;;;5.80;5.30;;;10.70;96.30;;;;;;4918429;29;20491;-75
2021/05/29 05:47:09;;;;;;;6.30;5.20;;;10.60;96.30;;;;;;4915997;29;20460;-75
2021/05/29 05:49:35;;;;;;;5.77;5.17;;;10.30;96.30;;;;;;4904779;29;20550;-73
2021/05/29 05:52:00;;;;;;;5.27;4.77;;;10.40;96.30;;;;;;4898932;29;20189;-73
2021/05/29 05:54:26;;;;;;;8.53;4.53;;;10.60;96.30;;;;;;4905770;29;20327;-73
2021/05/29 05:56:51;;;;;;;5.90;5.30;;;10.80;96.30;;;;;;4915944;29;20645;-73
2021/05/29 05:59:17;;;;;;;4.60;4.20;;;10.80;96.30;;;;;;4916266;29;20177;-73
2021/05/29 06:01:43;;;;;;;5.30;4.53;;;10.90;96.30;;;;;;4917516;29;20295;-73
2021/05/29 06:04:09;;;;;;;6.17;5.57;;;11.00;96.30;;;;;;4917423;29;20172;-73
2021/05/29 06:06:34;;;;;;;7.90;5.33;;;10.90;96.30;;;;;;4917093;29;20788;-73
2021/05/29 06:09:00;;;;;;;8.60;5.87;;;11.00;96.30;;;;;;4917559;29;20184;-73
2021/05/29 06:11:25;;;;;;;6.70;5.30;;;11.10;96.30;;;;;;4917311;29;20316;-73
2021/05/29 06:21:35;;;;;;;8.60;7.13;;;12.50;96.30;;;;;;4917401;29;20579;-72
2021/05/29 06:24:02;;;;;;;8.77;6.00;;;12.20;96.30;;;;;;4917487;29;20423;-73
2021/05/29 06:26:27;;;;;;;8.40;5.50;;;12.40;96.30;;;;;;4916757;29;20439;-72
2021/05/29 06:28:53;;;;;;;7.53;5.50;;;12.30;96.30;;;;;;4917194;29;20424;-73
2021/05/29 06:31:19;;;;;;;5.10;4.70;;;11.90;96.30;;;;;;4917309;29;20219;-73
2021/05/29 06:33:44;;;;;;;6.77;5.60;;;12.20;96.30;;;;;;4913564;29;20240;-73
2021/05/29 06:36:10;;;;;;;6.87;6.13;;;13.20;96.30;;;;;;4916633;29;20537;-73
2021/05/29 06:38:36;;;;;;;4.90;4.23;;;13.30;96.30;;;;;;4916643;29;20195;-73
2021/05/29 06:41:02;;;;;;;6.70;4.30;;;13.60;96.30;;;;;;4916617;29;20240;-73
2021/05/29 06:43:27;;;;;;;5.73;5.13;;;13.80;96.30;;;;;;4918906;29;20413;-73
2021/05/29 06:45:53;;;;;;;5.87;5.23;;;13.90;96.30;;;;;;4918372;29;21405;-73
2021/05/29 06:48:19;;;;;;;6.10;4.40;;;13.80;96.30;;;;;;4922440;29;20611;-73
2021/05/29 06:50:52;;;;;;;5.90;5.30;;;13.60;96.30;;;;;;4917153;29;20656;-73
2021/05/29 06:53:22;;;;;;;5.13;4.53;;;13.10;96.30;;;;;;4916687;29;20456;-73
2021/05/29 06:58:39;;;;;;;5.40;4.90;;;13.20;96.30;;;;;;4916293;29;20410;-73
2021/05/29 07:01:04;;;;;;;6.10;5.53;;;12.90;96.30;;;;;;4916340;29;20460;-73
2021/05/29 07:03:30;;;;;;;7.73;5.60;;;12.90;96.30;;;;;;4914903;29;20423;-73
2021/05/29 07:05:55;;;;;;;8.10;4.93;;;12.90;96.30;;;;;;4914814;29;20184;-74
2021/05/29 07:08:21;;;;;;;12.00;5.30;;;12.60;96.30;;;;;;4915213;29;20187;-74
2021/05/29 07:10:46;;;;;;;5.53;4.67;;;12.40;96.30;;;;;;4917101;29;20703;-74
2021/05/29 07:13:12;;;;;;;5.40;5.00;;;12.60;96.30;;;;;;4916905;29;20204;-74
2021/05/29 07:15:39;;;;;;;5.43;4.93;;;12.70;96.30;;;;;;4917074;29;20172;-74
2021/05/29 07:18:10;;;;;;;4.97;4.57;;;12.90;96.30;;;;;;4916274;29;20582;-74
2021/05/29 07:20:38;;;;;;;4.80;4.40;;;14.00;96.30;;;;;;4916744;29;20467;-74
2021/05/29 07:23:04;;;;;;;5.13;4.13;;;14.10;96.30;;;;;;4916838;29;20421;-74
2021/05/29 07:25:30;;;;;;;4.50;4.03;;;13.70;96.30;;;;;;4916667;29;20901;-74
2021/05/29 07:27:56;;;;;;;4.07;3.67;;;14.40;96.30;;;;;;4916239;29;20468;-74
2021/05/29 07:30:22;;;;;;;6.00;4.00;;;16.00;96.30;;;;;;4916314;29;20893;-75
2021/05/29 07:32:48;;;;;;;3.67;3.37;;;16.60;93.50;;;;;;4916186;29;20472;-75
2021/05/29 07:35:15;;;;;;;4.27;3.70;;;16.40;91.50;;;;;;4916935;29;20412;-75
2021/05/29 07:37:41;;;;;;;3.63;3.10;;;16.40;92.10;;;;;;4916408;29;20416;-77
2021/05/29 07:40:07;;;;;;;3.83;3.53;;;17.40;88.80;;;;;;4916391;29;20423;-76
2021/05/29 07:42:33;;;;;;;4.20;3.20;;;17.70;89.60;;;;;;4916316;29;20255;-75
2021/05/29 07:44:59;;;;;;;6.60;3.70;;;17.10;91.20;;;;;;4910555;29;20433;-74
2021/05/29 07:47:25;;;;;;;4.83;3.20;;;16.10;91.50;;;;;;4917156;29;20173;-75
2021/05/29 07:49:50;;;;;;;4.07;3.10;;;15.20;95.40;;;;;;4916809;29;20184;-75
2021/05/29 07:52:16;;;;;;;4.80;3.63;;;14.90;96.30;;;;;;4915299;29;20223;-74
2021/05/29 07:54:41;;;;;;;4.40;3.00;;;15.00;96.30;;;;;;4915760;29;20223;-74
2021/05/29 07:57:09;;;;;;;6.43;4.27;;;14.10;96.30;;;;;;4922230;29;20192;-74
2021/05/29 07:59:38;;;;;;;5.57;3.17;;;14.10;96.30;;;;;;4915603;29;20550;-74
2021/05/29 08:02:05;;;;;;;4.13;3.47;;;14.10;96.30;;;;;;4923527;29;20813;-74
2021/05/29 08:04:31;;;;;;;4.13;3.37;;;14.10;96.30;;;;;;4914294;29;20420;-74
2021/05/29 08:06:57;;;;;;;4.93;3.50;;;14.20;96.30;;;;;;4903183;29;20410;-74
2021/05/29 08:09:23;;;;;;;3.67;2.90;;;14.10;96.30;;;;;;4896538;29;20543;-74
2021/05/29 08:11:48;;;;;;;3.53;3.10;;;13.80;96.30;;;;;;4890583;29;20991;-74
2021/05/29 08:14:15;;;;;;;6.43;4.43;;;13.60;96.30;;;;;;4900988;29;20192;-74
2021/05/29 08:16:41;;;;;;;7.90;4.33;;;13.20;96.30;;;;;;4913774;29;20173;-74
2021/05/29 08:19:09;;;;;;;4.43;3.70;;;12.60;96.30;;;;;;4912466;29;20497;-74
2021/05/29 08:21:35;;;;;;;8.60;4.57;;;12.40;96.30;;;;;;4913192;29;20235;-74
2021/05/29 08:24:01;;;;;;;4.37;3.97;;;12.50;96.30;;;;;;4927937;29;20426;-74
2021/05/29 08:26:27;;;;;;;4.67;4.07;;;12.70;96.30;;;;;;4896040;29;20412;-74
2021/05/29 08:28:54;;;;;;;5.60;3.73;;;12.50;96.30;;;;;;4895066;29;20514;-74
2021/05/29 08:31:20;;;;;;;4.13;3.73;;;13.00;96.30;;;;;;4893717;29;20448;-74
2021/05/29 08:33:45;;;;;;;5.47;4.00;;;13.90;96.30;;;;;;4908941;29;20469;-74
2021/05/29 08:36:11;;;;;;;8.27;3.63;;;14.70;96.30;;;;;;4912326;29;20188;-74
2021/05/29 08:38:37;;;;;;;7.07;4.23;;;14.60;96.30;;;;;;4915437;29;20198;-74
2021/05/29 08:41:03;;;;;;;7.87;3.70;;;14.10;96.30;;;;;;4915340;29;20243;-75
2021/05/29 08:43:29;;;;;;;7.70;4.83;;;14.40;96.30;;;;;;4914492;29;20184;-75
2021/05/29 08:45:54;;;;;;;6.23;4.30;;;13.90;96.30;;;;;;4916052;29;20420;-75
2021/05/29 08:48:20;;;;;;;8.67;4.70;;;14.00;96.30;;;;;;4915188;29;20185;-75
2021/05/29 08:53:30;;;;;;;4.33;3.80;;;17.30;95.30;;;;;;4915391;29;20206;-75
2021/05/29 08:56:00;;;;;;;12.80;5.07;;;17.30;91.30;;;;;;4915418;29;20499;-75
2021/05/29 08:58:26;;;;;;;4.60;2.90;;;16.50;93.70;;;;;;4915019;29;20168;-75
2021/05/29 09:00:52;;;;;;;4.33;2.93;;;15.00;93.50;;;;;;4914999;29;20483;-74
2021/05/29 09:03:18;;;;;;;4.07;2.60;;;13.80;96.30;;;;;;4914901;29;20459;-75
2021/05/29 09:05:49;;;;;;;6.00;3.07;;;13.20;96.30;;;;;;4914983;29;20279;-74
2021/05/29 09:08:15;;;;;;;4.37;3.90;;;13.00;96.30;;;;;;4916229;29;20645;-74
2021/05/29 09:10:43;;;;;;;5.03;3.63;;;12.90;96.30;;;;;;4919112;29;20507;-74
2021/05/29 09:13:26;;;;;;;5.60;3.30;;;12.70;96.30;;;;;;4918867;29;20210;-75
2021/05/29 09:15:59;;;;;;;6.00;3.17;;;12.70;96.30;;;;;;4918008;29;20864;-75
2021/05/29 09:18:35;;;;;;;6.30;3.87;;;13.30;96.30;;;;;;4916070;29;20491;-74
2021/05/29 09:21:31;;;;;;;8.13;3.03;;;14.80;96.30;;;;;;4918166;29;20813;-75
2021/05/29 09:24:10;;;;;;;4.70;3.30;;;15.00;96.30;;;;;;4916362;29;20396;-75
2021/05/29 09:26:43;;;;;;;3.43;3.13;;;15.50;96.30;;;;;;4917556;29;20495;-75
2021/05/29 09:29:19;;;;;;;8.23;4.13;;;15.90;96.30;;;;;;4916362;29;20412;-75
2021/05/29 09:32:05;;;;;;;10.00;5.17;;;16.80;96.30;;;;;;4912982;29;20439;-75
2021/05/29 09:35:04;;;;;;;6.07;3.70;;;17.20;96.20;;;;;;4916557;29;20558;-75
2021/05/29 09:37:27;;;;;;;4.80;3.37;;;17.40;93.40;;;;;;4916913;29;20417;-75
2021/05/29 09:39:58;;;;;;;12.23;4.27;;;17.70;96.30;;;;;;4917750;29;20412;-75
2021/05/29 09:42:38;;;;;;;2.90;2.70;;;17.90;91.60;;;;;;4916640;29;20436;-75
2021/05/29 09:45:27;;;;;;;4.53;3.30;;;17.70;89.10;;;;;;4917955;29;20423;-75
2021/05/29 09:48:13;;;;;;;3.57;2.73;;;17.00;89.50;;;;;;4916549;29;20451;-74
2021/05/29 09:51:05;;;;;;;16.63;4.70;;;17.20;92.00;;;;;;4947498;28;20448;-75
2021/05/29 09:53:41;;;;;;;4.17;3.13;;;17.60;87.30;;;;;;4917606;29;20518;-75
2021/05/29 09:56:21;;;;;;;3.17;2.80;;;17.00;95.10;;;;;;4917484;29;20417;-75
2021/05/29 09:59:09;;;;;;;4.60;2.53;;;16.80;93.10;;;;;;4917307;29;20835;-74
2021/05/29 10:01:52;;;;;;;3.10;2.50;;;15.90;91.70;;;;;;4917290;29;20479;-74
2021/05/29 10:04:27;;;;;;;4.03;3.00;;;16.50;91.00;;;;;;4917568;29;20837;-75
2021/05/29 10:06:55;;;;;;;4.63;2.60;;;16.90;90.70;;;;;;4917208;29;20423;-75
2021/05/29 10:09:21;;;;;;;5.83;2.40;;;17.30;92.60;;;;;;4928597;29;20423;-75
2021/05/29 10:11:46;;;;;;;3.00;2.53;;;17.60;92.20;;;;;;4936542;29;20436;-75
2021/05/29 10:14:12;;;;;;;7.30;3.47;;;17.70;87.80;;;;;;4959263;23;20602;-78
2021/05/29 10:16:38;;;;;;;4.70;3.03;;;17.50;86.90;;;;;;4926716;29;20219;-78
2021/05/29 10:19:06;;;;;;;4.53;3.17;;;17.80;90.10;;;;;;4918702;29;20172;-78
2021/05/29 10:21:31;;;;;;;2.90;2.20;;;17.70;85.50;;;;;;4919620;29;20668;-79
2021/05/29 10:24:00;;;;;;;4.70;2.43;;;17.80;88.00;;;;;;4918602;29;20475;-78
2021/05/29 10:26:26;;;;;;;3.20;2.60;;;17.20;89.00;;;;;;4917937;29;20184;-78
2021/05/29 10:28:53;;;;;;;4.10;2.53;;;17.10;88.90;;;;;;4917714;29;20463;-78
2021/05/29 10:31:18;;;;;;;3.80;2.43;;;17.60;88.70;;;;;;4917522;29;20416;-78
2021/05/29 10:33:45;;;;;;;7.00;2.70;;;17.70;87.80;;;;;;4916431;29;20483;-78
2021/05/29 10:36:37;;;;;;;3.30;2.60;;;17.50;86.00;;;;;;4925739;29;20212;-78
2021/05/29 10:39:24;;;;;;;5.67;3.37;;;17.80;88.20;;;;;;4935834;29;20450;-77
2021/05/29 10:41:52;;;;;;;4.17;2.23;;;18.60;89.30;;;;;;4934733;29;20819;-77
2021/05/29 10:44:38;;;;;;;3.60;1.90;;;17.80;84.80;;;;;;4935106;29;20436;-77
2021/05/29 10:47:15;;;;;;;2.70;2.20;;;16.20;88.20;;;;;;4935988;29;20439;-77
2021/05/29 10:50:03;;;;;;;5.83;2.60;;;15.50;91.80;;;;;;4936321;29;20395;-77
2021/05/29 10:52:32;;;;;;;3.10;2.70;;;15.20;92.20;;;;;;4936125;29;20868;-77
2021/05/29 10:55:09;;;;;;;1.70;1.60;;;15.90;91.90;;;;;;4936039;29;20431;-77
2021/05/29 10:57:56;;;;;;;2.23;2.00;;;16.90;85.80;;;;;;4935579;29;20458;-77
2021/05/29 11:00:40;;;;;;;2.80;1.40;;;17.40;91.20;;;;;;4936212;29;20498;-77
2021/05/29 11:03:22;;;;;;;2.30;1.43;;;18.20;82.70;;;;;;4935920;29;20411;-76
2021/05/29 11:05:49;;;;;;;3.10;1.93;;;19.30;83.30;;;;;;4935701;29;20423;-79
2021/05/29 11:08:53;;;;;;;3.23;2.40;;;18.80;80.50;;;;;;4938149;29;20411;-79
2021/05/29 11:11:42;;;;;;;5.97;2.37;;;17.40;84.40;;;;;;4936762;29;20407;-78
2021/05/29 11:14:10;;;;;;;4.03;2.60;;;15.80;90.40;;;;;;4936470;29;20494;-79
2021/05/29 11:16:53;;;;;;;5.10;2.43;;;15.60;91.40;;;;;;4936512;29;21115;-78
2021/05/29 11:19:36;;;;;;;2.70;2.17;;;15.60;91.00;;;;;;4936529;29;20415;-78
2021/05/29 11:22:19;;;;;;;2.80;2.10;;;15.60;88.60;;;;;;4937318;29;20422;-78
2021/05/29 11:24:57;;;;;;;6.53;2.10;;;15.70;87.00;;;;;;4936266;29;20443;-78
2021/05/29 11:27:27;;;;;;;2.53;1.97;;;15.80;86.80;;;;;;4936911;29;20400;-78
2021/05/29 11:29:55;;;;;;;3.20;1.43;;;16.40;88.30;;;;;;4936620;29;20419;-79
2021/05/29 11:35:30;;;;;;;1.73;1.33;;;15.90;88.80;;;;;;4937158;29;20465;-79
2021/05/29 11:38:01;;;;;;;3.63;1.47;;;15.60;87.80;;;;;;4933122;29;20420;-80
2021/05/29 11:40:41;;;;;;;6.67;2.67;;;15.70;89.70;;;;;;4927909;29;20438;-81
2021/05/29 11:43:07;;;;;;;5.13;2.90;;;15.70;89.90;;;;;;4934103;29;20926;-81
2021/05/29 11:45:33;;;;;;;4.00;2.80;;;14.60;94.00;;;;;;4937278;29;20407;-79
2021/05/29 11:47:58;;;;;;;3.80;2.33;;;14.30;96.30;;;;;;4920523;29;20207;-79
2021/05/29 11:50:24;;;;;;;2.60;2.37;;;14.20;96.30;;;;;;4915939;29;20180;-78
2021/05/29 11:52:49;;;;;;;9.53;2.40;;;13.60;96.30;;;;;;4916862;29;20214;-78
2021/05/29 11:55:16;;;;;;;3.60;2.17;;;13.70;96.30;;;;;;4917494;29;20709;-79
2021/05/29 11:58:00;;;;;;;4.50;2.30;;;13.70;96.30;;;;;;4920726;29;20176;-79
2021/05/29 12:00:27;;;;;;;6.23;3.10;;;13.70;96.30;;;;;;4955877;28;20806;-79
2021/05/29 12:02:53;;;;;;;6.50;3.40;;;13.20;96.30;;;;;;4955430;28;20407;-78
2021/05/29 12:05:19;;;;;;;4.20;2.97;;;12.60;96.30;;;;;;4954889;28;20438;-79
2021/05/29 12:08:02;;;;;;;4.50;2.70;;;12.30;96.30;;;;;;4940120;28;20491;-78
2021/05/29 12:10:50;;;;;;;2.93;2.63;;;12.20;96.30;;;;;;4935870;29;20423;-79
2021/05/29 12:13:29;;;;;;;3.97;2.90;;;12.00;96.30;;;;;;4935008;29;20483;-79
2021/05/29 12:16:01;;;;;;;7.00;3.33;;;11.90;96.30;;;;;;4934689;29;20450;-79
2021/05/29 12:18:38;;;;;;;4.23;2.70;;;11.60;96.30;;;;;;4933774;29;20411;-79
2021/05/29 12:21:06;;;;;;;5.27;2.90;;;11.50;96.30;;;;;;4933151;29;20885;-78
2021/05/29 12:23:50;;;;;;;5.77;2.53;;;11.30;96.30;;;;;;4932790;29;20542;-79
2021/05/29 12:26:16;;;;;;;3.93;2.10;;;11.20;96.30;;;;;;4934108;29;20404;-78
2021/05/29 12:28:41;;;;;;;6.70;2.20;;;11.20;96.30;;;;;;4934288;29;20427;-78
2021/05/29 12:31:07;;;;;;;7.87;3.50;;;11.20;96.30;;;;;;4933984;29;20432;-78
2021/05/29 12:33:32;;;;;;;6.10;2.37;;;11.20;96.30;;;;;;4934274;29;20246;-80
2021/05/29 12:36:10;;;;;;;5.73;2.30;;;11.40;96.30;;;;;;4934193;29;20203;-78
2021/05/29 12:38:36;;;;;;;4.90;2.73;;;11.70;96.30;;;;;;4928212;29;20171;-79
2021/05/29 12:41:09;;;;;;;3.83;2.87;;;12.00;96.30;;;;;;4935105;29;20962;-80
2021/05/29 12:43:35;;;;;;;4.23;3.20;;;12.40;96.30;;;;;;4932660;29;20242;-81
2021/05/29 12:46:01;;;;;;;6.90;3.47;;;12.70;96.30;;;;;;4930811;29;20415;-80
2021/05/29 12:48:27;;;;;;;4.70;3.90;;;13.00;96.30;;;;;;4928455;29;20506;-80
2021/05/29 12:53:34;;;;;;;6.37;4.03;;;13.20;96.30;;;;;;4922577;29;20258;-80
2021/05/29 12:56:12;;;;;;;14.40;11.43;;;13.90;96.30;;;;;;4937361;29;20447;-80
2021/05/29 12:58:38;;;;;;;3.70;3.00;;;14.90;96.30;;;;;;4937994;29;20399;-80
2021/05/29 13:12:59;;;;;;;6.20;2.77;;;14.50;96.30;;;;;;4936787;29;21000;-80
2021/05/29 13:15:25;;;;;;;4.63;2.80;;;14.50;96.30;;;;;;4886941;29;1001127;-80
2021/05/29 13:18:12;;;;;;;8.60;2.77;;;14.40;96.30;;;;;;4937440;29;20202;-81
2021/05/29 13:20:40;;;;;;;5.50;2.27;;;13.90;96.30;;;;;;4940909;29;20426;-80
2021/05/29 13:23:07;;;;;;;4.03;2.33;;;14.00;96.30;;;;;;4941770;29;20435;-78
2021/05/29 13:25:44;;;;;;;2.50;2.30;;;13.80;96.30;;;;;;4935685;29;20502;-79
2021/05/29 13:28:13;;;;;;;3.63;2.60;;;13.50;96.30;;;;;;4938782;29;20411;-79
2021/05/29 13:30:39;;;;;;;2.70;2.00;;;13.00;96.30;;;;;;4938098;29;20995;-79
2021/05/29 13:33:11;;;;;;;3.30;2.20;;;12.60;96.30;;;;;;4938150;29;20459;-79
2021/05/29 13:35:38;;;;;;;2.47;2.00;;;12.30;96.30;;;;;;4937961;29;20426;-81
2021/05/29 13:38:04;;;;;;;3.47;2.10;;;12.50;96.30;;;;;;4936279;29;20424;-79
2021/05/29 13:40:30;;;;;;;2.87;1.87;;;12.60;96.30;;;;;;4931443;29;20416;-78
2021/05/29 13:42:56;;;;;;;6.03;2.70;;;12.70;96.30;;;;;;4918848;29;20431;-79
2021/05/29 13:45:25;;;;;;;3.90;1.80;;;12.40;96.30;;;;;;4918666;29;20208;-79
2021/05/29 13:47:51;;;;;;;4.93;2.03;;;12.00;96.30;;;;;;4916349;29;20263;-79
2021/05/29 13:50:18;;;;;;;4.10;2.57;;;11.70;96.30;;;;;;4924112;29;20428;-79
2021/05/29 13:52:45;;;;;;;2.57;2.37;;;11.80;96.30;;;;;;4926486;29;20182;-80
2021/05/29 13:55:11;;;;;;;5.87;3.20;;;12.00;96.30;;;;;;4918468;29;20511;-80
2021/05/29 13:57:37;;;;;;;5.40;2.33;;;12.40;96.30;;;;;;4917751;29;20432;-79
2021/05/29 14:00:06;;;;;;;4.93;3.30;;;12.50;96.30;;;;;;4917051;29;20416;-79
2021/05/29 14:02:31;;;;;;;5.17;3.83;;;12.60;96.30;;;;;;4918319;29;20196;-79
2021/05/29 14:04:57;;;;;;;3.60;3.30;;;12.40;96.30;;;;;;4918305;29;20780;-80
2021/05/29 14:07:22;;;;;;;6.93;4.00;;;11.80;96.30;;;;;;4917952;29;20599;-78
2021/05/29 14:09:48;;;;;;;3.80;3.30;;;11.50;96.30;;;;;;4918274;29;20705;-78
2021/05/29 14:12:14;;;;;;;7.13;3.50;;;11.40;96.30;;;;;;4919729;29;20177;-78
2021/05/29 14:14:39;;;;;;;4.40;3.20;;;11.50;96.30;;;;;;4936912;29;20223;-79
2021/05/29 14:17:05;;;;;;;3.33;3.03;;;11.60;96.30;;;;;;4936661;29;20183;-79
2021/05/29 14:19:30;;;;;;;5.60;4.00;;;11.70;96.30;;;;;;4937095;29;20183;-79
2021/05/29 14:21:57;;;;;;;9.93;3.27;;;11.70;96.30;;;;;;4937059;29;20180;-80
2021/05/29 14:24:22;;;;;;;3.77;3.30;;;11.60;96.30;;;;;;4937821;29;20270;-80
2021/05/29 14:26:48;;;;;;;7.40;3.63;;;11.50;96.30;;;;;;4936638;29;20999;-78
2021/05/29 14:29:13;;;;;;;9.17;4.30;;;11.30;96.30;;;;;;4936655;29;20194;-77
2021/05/29 14:31:39;;;;;;;4.53;3.20;;;10.90;96.30;;;;;;4936043;29;20183;-78
2021/05/29 14:34:07;;;;;;;4.37;3.37;;;10.70;96.30;;;;;;4935999;29;20580;-78
2021/05/29 14:36:33;;;;;;;5.93;3.30;;;10.50;96.30;;;;;;4935376;29;20727;-77
2021/05/29 14:38:59;;;;;;;5.07;3.53;;;10.20;96.30;;;;;;4935933;29;20551;-78
2021/05/29 14:41:24;;;;;;;3.63;3.23;;;10.10;96.30;;;;;;4936149;29;20774;-78
2021/05/29 14:43:51;;;;;;;7.37;3.50;;;10.00;96.30;;;;;;4933780;29;20208;-78
2021/05/29 14:46:16;;;;;;;3.63;3.30;;;10.10;96.30;;;;;;4936002;29;20180;-78
2021/05/29 14:48:45;;;;;;;6.50;3.43;;;10.20;96.30;;;;;;4936275;29;20419;-78
2021/05/29 14:51:20;;;;;;;5.17;3.37;;;10.10;96.30;;;;;;4934697;29;20196;-78
2021/05/29 14:53:51;;;;;;;3.67;3.33;;;10.10;96.30;;;;;;4936203;29;20462;-78
2021/05/29 14:56:20;;;;;;;5.17;3.27;;;10.20;96.30;;;;;;4935684;29;20400;-78
2021/05/29 14:58:45;;;;;;;3.67;3.10;;;10.50;96.30;;;;;;4936146;29;20412;-78
2021/05/29 15:01:12;;;;;;;5.23;3.10;;;10.80;96.30;;;;;;4935773;29;20426;-77
2021/05/29 15:03:40;;;;;;;5.17;3.03;;;10.90;96.30;;;;;;4935947;29;20668;-77
2021/05/29 15:06:06;;;;;;;3.83;2.50;;;10.80;96.30;;;;;;4935156;29;20430;-78
2021/05/29 15:08:33;;;;;;;3.47;3.00;;;11.00;96.30;;;;;;4936080;29;20415;-77
2021/05/29 15:10:58;;;;;;;3.90;2.93;;;10.90;96.30;;;;;;4936531;29;20820;-78
2021/05/29 15:13:24;;;;;;;3.20;2.90;;;11.10;96.30;;;;;;4935934;29;20467;-78
2021/05/29 15:15:50;;;;;;;4.83;3.40;;;11.00;96.30;;;;;;4936182;29;20164;-77
2021/05/29 15:18:15;;;;;;;3.97;3.13;;;11.00;96.30;;;;;;4935749;29;20175;-78
2021/05/29 15:23:13;;;;;;;4.93;3.10;;;11.30;96.30;;;;;;4936204;29;20167;-77
2021/05/29 15:25:41;;;;;;;3.90;2.80;;;11.40;96.30;;;;;;4931577;29;20446;-77
2021/05/29 15:28:07;;;;;;;3.83;2.87;;;11.70;96.30;;;;;;4932879;29;20415;-78
2021/05/29 15:30:32;;;;;;;4.00;3.30;;;12.50;96.30;;;;;;4934197;29;20419;-78
2021/05/29 15:32:58;;;;;;;5.77;3.00;;;13.10;96.30;;;;;;4935812;29;20215;-81
2021/05/29 15:35:23;;;;;;;4.13;2.77;;;13.30;96.30;;;;;;4936157;29;20712;-78
2021/05/29 15:37:49;;;;;;;4.10;2.43;;;14.10;96.30;;;;;;4934275;29;20172;-78
2021/05/29 15:40:15;;;;;;;3.03;2.80;;;14.30;96.30;;;;;;4936029;29;20203;-78
2021/05/29 15:42:40;;;;;;;4.93;2.80;;;14.40;96.30;;;;;;4933648;29;20549;-77
2021/05/29 15:45:06;;;;;;;6.17;2.70;;;14.20;96.30;;;;;;4936360;29;20203;-78
2021/05/29 15:47:31;;;;;;;4.70;2.60;;;14.00;96.30;;;;;;4935283;29;20250;-78
2021/05/29 15:49:57;;;;;;;2.80;2.17;;;13.90;96.30;;;;;;4935093;29;20654;-78
2021/05/29 15:52:25;;;;;;;5.53;2.43;;;13.90;96.30;;;;;;4936261;29;20188;-78
2021/05/29 15:54:50;;;;;;;4.50;2.97;;;13.60;96.30;;;;;;4933413;29;20210;-78
2021/05/29 15:57:17;;;;;;;3.60;2.50;;;13.90;96.30;;;;;;4934375;29;20423;-77
2021/05/29 15:59:42;;;;;;;4.93;3.03;;;13.80;96.30;;;;;;4934453;29;20183;-77
2021/05/29 16:02:08;;;;;;;4.67;2.60;;;13.60;96.30;;;;;;4934449;29;20781;-77
2021/05/29 16:04:35;;;;;;;4.40;2.77;;;13.50;96.30;;;;;;4935325;29;20290;-78
2021/05/29 16:07:00;;;;;;;5.93;3.53;;;13.40;96.30;;;;;;4932934;29;20183;-78
2021/05/29 16:09:26;;;;;;;5.37;3.10;;;13.30;96.30;;;;;;4934945;29;20423;-78
2021/05/29 16:11:54;;;;;;;3.53;2.77;;;13.40;96.30;;;;;;4933574;29;20194;-78
2021/05/29 16:14:19;;;;;;;3.23;2.70;;;13.60;96.30;;;;;;4934725;29;20680;-78
2021/05/29 16:16:45;;;;;;;3.80;3.50;;;13.90;96.30;;;;;;4932923;29;20420;-78
2021/05/29 16:19:10;;;;;;;4.80;2.80;;;14.40;96.30;;;;;;4934087;29;20183;-77
2021/05/29 16:21:36;;;;;;;3.10;2.60;;;14.40;96.30;;;;;;4934171;29;20180;-78
2021/05/29 16:24:02;;;;;;;3.73;3.17;;;14.40;96.30;;;;;;4932659;29;20207;-78
2021/05/29 16:26:28;;;;;;;3.33;2.90;;;14.40;96.30;;;;;;4933571;29;20184;-78
2021/05/29 16:28:53;;;;;;;7.20;3.07;;;14.30;96.30;;;;;;4934545;29;20979;-78
2021/05/29 16:31:19;;;;;;;6.20;3.90;;;14.10;96.30;;;;;;4933262;29;20188;-78
2021/05/29 16:33:44;;;;;;;3.57;3.23;;;14.20;96.30;;;;;;4934249;29;20215;-78
2021/05/29 16:36:14;;;;;;;3.37;2.87;;;14.10;96.30;;;;;;4934022;29;20171;-80
2021/05/29 16:38:41;;;;;;;5.20;3.63;;;13.90;96.30;;;;;;4934294;29;20250;-79
2021/05/29 16:41:08;;;;;;;4.00;3.60;;;13.90;96.30;;;;;;4934548;29;20415;-78
2021/05/29 16:43:42;;;;;;;4.53;3.73;;;13.90;96.30;;;;;;4934412;29;20471;-78
2021/05/29 16:46:08;;;;;;;8.77;3.80;;;13.80;96.30;;;;;;4933809;29;20423;-79
2021/05/29 16:48:34;;;;;;;4.20;3.40;;;13.60;96.30;;;;;;4934133;29;20418;-78
2021/05/29 16:51:03;;;;;;;10.80;4.10;;;13.80;96.30;;;;;;4934462;29;20171;-79
2021/05/29 16:53:32;;;;;;;3.70;2.83;;;13.90;96.30;;;;;;4934140;29;20891;-77
2021/05/29 16:55:59;;;;;;;4.20;3.30;;;13.50;96.30;;;;;;4934144;29;20942;-78
2021/05/29 16:58:26;;;;;;;4.80;3.47;;;13.00;96.30;;;;;;4933471;29;20415;-78
2021/05/29 17:00:51;;;;;;;7.50;3.80;;;12.80;96.30;;;;;;4934350;29;20462;-78
2021/05/29 17:03:17;;;;;;;5.37;3.40;;;12.90;96.30;;;;;;4934154;29;21229;-78
2021/05/29 17:05:42;;;;;;;4.90;3.03;;;12.90;96.30;;;;;;4933373;29;20180;-82
2021/05/29 17:08:08;;;;;;;5.10;2.90;;;13.00;96.30;;;;;;4926304;29;20196;-77
2021/05/29 17:10:34;;;;;;;5.70;4.03;;;12.90;96.30;;;;;;4924361;29;20856;-78
2021/05/29 17:12:59;;;;;;;4.33;3.00;;;12.80;96.30;;;;;;4926452;29;20650;-78
2021/05/29 17:15:25;;;;;;;5.53;4.13;;;12.70;96.30;;;;;;4917326;29;20299;-79
2021/05/29 17:17:50;;;;;;;3.73;3.27;;;12.80;96.30;;;;;;4932209;29;20171;-79
2021/05/29 17:20:16;;;;;;;4.60;3.70;;;12.90;96.30;;;;;;4933981;29;20184;-79
2021/05/29 17:22:41;;;;;;;6.60;4.00;;;12.90;96.30;;;;;;4934471;29;20176;-79
2021/05/29 17:25:08;;;;;;;3.80;3.33;;;12.90;96.30;;;;;;4934859;29;20672;-79
2021/05/29 17:27:33;;;;;;;5.97;4.37;;;12.90;96.30;;;;;;4933538;29;20528;-78